Time;durP1;ratioP1;P1;durP2;ratioP2;P2;SDS_P1;SDS_P2;PMS_P1;PMS_P2;Temp;Humidity;BMP_temperature;BMP_pressure;BME280_temperature;BME280_humidity;BME280_pressure;Samples;Min_cycle;Max_cycle;Signal;HPM_P1;HPM_P2
2021/12/10 00:00:57;;;;;;;21.70;7.80;;;;;;;9.55;87.89;95790.28;5113548;28;20473;-65
2021/12/10 00:03:35;;;;;;;21.17;7.03;;;;;;;9.54;87.62;95783.34;5113481;28;20040;-61
2021/12/10 00:06:12;;;;;;;20.65;7.53;;;;;;;9.48;87.69;95786.22;5113364;28;20032;-63
2021/12/10 00:08:41;;;;;;;24.88;7.45;;;;;;;9.48;88.58;95804.50;5113592;28;20102;-64
2021/12/10 00:11:21;;;;;;;24.17;6.93;;;;;;;9.52;87.65;95792.16;5113550;28;20461;-64
2021/12/10 00:13:47;;;;;;;29.17;5.55;;;;;;;9.54;88.49;95792.94;5113501;28;20092;-62
2021/12/10 00:16:16;;;;;;;26.13;7.40;;;;;;;9.59;88.78;95794.44;5113358;28;20027;-62
2021/12/10 00:18:49;;;;;;;16.52;5.68;;;;;;;9.71;89.72;95793.00;5113262;28;20363;-64
2021/12/10 00:21:15;;;;;;;22.13;5.07;;;;;;;9.91;89.61;95787.75;5113597;28;20036;-65
2021/12/10 00:23:45;;;;;;;22.83;5.50;;;;;;;9.89;88.82;95798.28;5113190;28;20035;-65
2021/12/10 00:26:11;;;;;;;16.33;5.70;;;;;;;9.92;89.53;95790.31;5113428;28;20038;-61
2021/12/10 00:28:40;;;;;;;14.48;4.50;;;;;;;10.04;88.86;95788.03;5113233;28;20116;-66
2021/12/10 00:31:18;;;;;;;17.48;4.78;;;;;;;9.97;88.43;95775.25;5113213;28;20465;-64
2021/12/10 00:33:56;;;;;;;29.02;5.28;;;;;;;10.00;88.86;95784.72;5113191;28;20531;-63
2021/12/10 00:36:23;;;;;;;22.58;5.20;;;;;;;10.14;89.02;95775.38;5111966;28;20019;-64
2021/12/10 00:38:51;;;;;;;21.20;4.35;;;;;;;10.12;87.92;95775.44;5113144;28;20016;-62
2021/12/10 00:41:18;;;;;;;19.80;4.43;;;;;;;10.25;87.48;95762.63;5113032;28;20047;-64
2021/12/10 00:43:44;;;;;;;23.73;4.53;;;;;;;10.32;86.94;95761.38;5113075;28;20032;-61
2021/12/10 00:46:10;;;;;;;24.55;5.53;;;;;;;10.40;86.02;95749.69;5113291;28;20115;-63
2021/12/10 00:48:35;;;;;;;15.63;4.25;;;;;;;10.38;85.29;95739.31;5115592;28;20037;-62
2021/12/10 00:51:03;;;;;;;22.88;5.47;;;;;;;10.32;85.44;95743.09;5116933;28;20081;-59
2021/12/10 00:53:28;;;;;;;22.50;4.65;;;;;;;10.34;84.89;95743.88;5116795;28;20019;-61
2021/12/10 00:55:54;;;;;;;18.48;4.00;;;;;;;10.19;85.12;95745.47;5116791;28;20106;-62
2021/12/10 00:58:21;;;;;;;27.00;5.90;;;;;;;10.14;85.03;95744.84;5116639;28;20064;-65
2021/12/10 01:00:51;;;;;;;20.13;5.65;;;;;;;10.04;85.27;95731.38;5116707;28;20032;-63
2021/12/10 01:03:20;;;;;;;29.15;5.50;;;;;;;9.97;85.92;95727.38;5116589;28;20024;-64
2021/12/10 01:05:49;;;;;;;31.35;5.43;;;;;;;10.07;85.18;95715.56;5116578;27;20385;-61
2021/12/10 01:08:15;;;;;;;23.55;4.97;;;;;;;10.10;84.93;95725.00;5116582;28;20473;-65
2021/12/10 01:10:48;;;;;;;21.15;6.10;;;;;;;10.11;85.36;95717.09;5116621;28;20106;-64
2021/12/10 01:13:18;;;;;;;23.60;6.55;;;;;;;9.99;85.49;95726.38;5115212;28;20389;-67
2021/12/10 01:16:14;;;;;;;15.90;4.23;;;;;;;10.02;85.94;95716.72;5116411;28;20027;-64
2021/12/10 01:27:28;;;;;;;23.63;5.45;;;;;;;9.74;85.50;95713.66;5116241;28;20031;-61
2021/12/10 01:29:57;;;;;;;21.35;4.95;;;;;;;9.78;85.18;95717.00;5116113;28;20038;-61
2021/12/10 01:32:26;;;;;;;19.05;3.97;;;;;;;9.85;85.21;95721.00;5116115;28;20022;-62
2021/12/10 01:34:52;;;;;;;21.95;4.35;;;;;;;9.84;84.93;95708.84;5116174;28;20110;-63
2021/12/10 01:37:19;;;;;;;28.85;4.50;;;;;;;9.84;84.53;95701.00;5116053;28;20563;-62
2021/12/10 01:39:45;;;;;;;21.85;4.72;;;;;;;9.93;84.42;95704.97;5116066;28;20395;-62
2021/12/10 01:42:31;;;;;;;21.75;3.88;;;;;;;10.07;83.81;95691.19;5115708;28;20019;-63
2021/12/10 01:44:59;;;;;;;16.50;3.83;;;;;;;10.09;83.42;95698.03;5115936;28;20024;-64
2021/12/10 01:47:32;;;;;;;12.90;3.35;;;;;;;10.24;82.44;95698.22;5115837;28;20020;-63
2021/12/10 01:49:59;;;;;;;20.50;3.58;;;;;;;10.36;81.92;95696.75;5115851;28;20106;-60
2021/12/10 01:52:26;;;;;;;18.20;4.18;;;;;;;10.36;81.76;95694.13;5114399;28;20043;-59
2021/12/10 01:54:58;;;;;;;17.75;3.30;;;;;;;10.43;81.24;95686.81;5115629;28;20100;-64
2021/12/10 01:57:30;;;;;;;26.35;3.55;;;;;;;10.57;80.80;95686.13;5115686;28;20574;-66
2021/12/10 01:59:57;;;;;;;23.83;3.67;;;;;;;10.64;80.40;95691.88;5114844;28;20072;-63
2021/12/10 02:02:27;;;;;;;22.70;3.25;;;;;;;10.69;79.63;95695.94;5115511;28;20032;-61
2021/12/10 02:04:53;;;;;;;15.45;3.10;;;;;;;10.76;79.11;95685.16;5115467;28;20024;-62
2021/12/10 02:07:24;;;;;;;29.17;4.07;;;;;;;10.77;79.33;95687.72;5115381;28;20477;-63
2021/12/10 02:09:51;;;;;;;20.50;3.08;;;;;;;10.81;78.93;95691.84;5115489;28;20053;-61
2021/12/10 02:12:18;;;;;;;18.88;3.50;;;;;;;10.85;78.99;95675.09;5115338;28;20019;-59
2021/12/10 02:14:46;;;;;;;12.52;2.85;;;;;;;10.90;78.62;95677.47;5115256;28;20454;-65
2021/12/10 02:17:12;;;;;;;19.25;3.33;;;;;;;10.93;78.71;95665.97;5115220;28;20185;-66
2021/12/10 02:19:39;;;;;;;26.42;4.03;;;;;;;10.93;78.74;95676.44;5114959;28;20123;-62
2021/12/10 02:22:05;;;;;;;19.83;3.72;;;;;;;10.87;79.23;95678.44;5115191;28;20028;-64
2021/12/10 02:24:32;;;;;;;16.80;3.50;;;;;;;11.02;78.43;95659.41;5115132;28;20027;-66
2021/12/10 02:27:01;;;;;;;21.50;4.22;;;;;;;11.02;78.42;95660.25;5115088;28;20055;-64
2021/12/10 02:29:29;;;;;;;22.13;3.22;;;;;;;11.02;78.73;95670.72;5114915;28;20049;-63
2021/12/10 02:31:55;;;;;;;11.30;2.90;;;;;;;11.06;78.48;95666.16;5114861;28;20058;-64
2021/12/10 02:34:22;;;;;;;18.92;4.88;;;;;;;11.12;78.29;95660.59;5114850;28;20536;-62
2021/12/10 02:36:49;;;;;;;26.63;4.90;;;;;;;11.14;78.51;95661.38;5114806;28;20465;-64
2021/12/10 02:39:18;;;;;;;20.33;3.40;;;;;;;11.16;77.39;95654.25;5114779;28;20066;-62
2021/12/10 02:41:44;;;;;;;14.93;3.35;;;;;;;11.19;77.46;95654.09;5114678;27;20027;-62
2021/12/10 02:44:14;;;;;;;16.70;3.92;;;;;;;11.23;77.50;95654.78;5114656;28;20027;-61
2021/12/10 02:46:41;;;;;;;20.17;3.17;;;;;;;11.17;77.55;95652.50;5114732;28;20387;-65
2021/12/10 02:49:10;;;;;;;17.10;3.25;;;;;;;11.15;77.52;95651.72;5114727;28;20068;-61
2021/12/10 02:51:36;;;;;;;16.52;2.97;;;;;;;11.18;76.69;95635.84;5114490;28;20027;-60
2021/12/10 02:54:05;;;;;;;16.00;3.60;;;;;;;11.19;76.32;95633.16;5114358;28;20023;-64
2021/12/10 02:56:30;;;;;;;20.27;3.03;;;;;;;11.20;75.73;95623.53;5114382;28;20491;-64
2021/12/10 02:58:59;;;;;;;17.50;2.97;;;;;;;11.20;75.41;95634.00;5113225;28;20099;-64
2021/12/10 03:01:43;;;;;;;18.23;3.28;;;;;;;11.28;75.21;95633.56;5114460;28;20020;-61
2021/12/10 03:04:09;;;;;;;20.58;4.10;;;;;;;11.37;74.91;95622.59;5114223;28;20052;-65
2021/12/10 03:06:48;;;;;;;18.95;2.97;;;;;;;11.46;74.02;95619.47;5114201;28;20028;-62
2021/12/10 03:09:16;;;;;;;16.92;3.47;;;;;;;11.47;73.95;95618.50;5114287;28;20038;-64
2021/12/10 03:11:48;;;;;;;20.63;3.33;;;;;;;11.52;74.04;95620.88;5114106;28;20373;-66
2021/12/10 03:14:19;;;;;;;15.77;3.08;;;;;;;11.49;74.40;95615.81;5114273;28;20040;-63
2021/12/10 03:16:46;;;;;;;9.35;2.80;;;;;;;11.46;74.66;95623.84;5114084;28;20020;-62
2021/12/10 03:19:12;;;;;;;14.68;2.75;;;;;;;11.36;74.71;95632.22;5113894;27;20453;-65
2021/12/10 03:21:39;;;;;;;20.40;3.33;;;;;;;11.38;75.16;95634.75;5114111;28;20455;-59
2021/12/10 03:24:06;;;;;;;20.63;3.55;;;;;;;11.31;75.43;95626.38;5113899;28;20030;-58
2021/12/10 03:26:32;;;;;;;23.95;3.67;;;;;;;11.21;76.34;95636.53;5113985;28;20019;-66
2021/12/10 03:28:57;;;;;;;17.15;3.10;;;;;;;11.15;76.52;95620.31;5113946;28;20544;-65
2021/12/10 03:31:25;;;;;;;15.55;2.58;;;;;;;11.11;76.37;95630.94;5113988;28;20473;-67
2021/12/10 03:33:53;;;;;;;17.15;3.97;;;;;;;11.18;76.23;95638.47;5113845;28;20069;-61
2021/12/10 03:36:18;;;;;;;17.35;3.90;;;;;;;11.16;77.20;95628.09;5113782;28;20108;-66
2021/12/10 03:38:44;;;;;;;18.17;3.22;;;;;;;11.13;77.87;95630.88;5113823;28;20050;-62
2021/12/10 03:41:12;;;;;;;19.48;4.15;;;;;;;10.95;78.11;95633.56;5113834;28;20076;-67
2021/12/10 03:43:39;;;;;;;20.63;3.28;;;;;;;10.90;78.07;95659.16;5113807;28;20117;-62
2021/12/10 03:46:06;;;;;;;26.83;3.90;;;;;;;10.94;79.18;95625.78;5113652;28;20031;-65
2021/12/10 03:48:42;;;;;;;23.08;3.78;;;;;;;10.94;79.47;95615.31;5113696;28;20374;-63
2021/12/10 03:51:14;;;;;;;16.45;3.63;;;;;;;10.90;80.33;95613.81;5113676;28;20035;-66
2021/12/10 03:53:39;;;;;;;23.00;4.80;;;;;;;10.88;80.91;95616.50;5113644;28;20077;-65
2021/12/10 03:56:15;;;;;;;15.13;4.20;;;;;;;10.72;81.94;95616.50;5113487;28;20023;-62
2021/12/10 03:58:42;;;;;;;16.63;4.28;;;;;;;10.65;82.54;95615.13;5113545;28;20023;-61
2021/12/10 04:01:11;;;;;;;12.15;3.88;;;;;;;10.51;83.29;95616.72;5113479;28;20073;-66
2021/12/10 04:03:37;;;;;;;22.08;4.75;;;;;;;10.56;83.45;95603.38;5113482;28;20722;-64
2021/12/10 04:06:03;;;;;;;17.73;4.72;;;;;;;10.59;84.17;95600.59;5113467;28;20526;-64
2021/12/10 04:08:30;;;;;;;18.33;5.53;;;;;;;10.40;85.52;95603.31;5113404;28;20030;-63
2021/12/10 04:10:56;;;;;;;22.45;4.93;;;;;;;10.34;86.12;95607.94;5113450;28;20102;-65
2021/12/10 04:13:23;;;;;;;23.00;6.82;;;;;;;10.32;86.61;95612.41;5113359;28;20019;-65
2021/12/10 04:15:49;;;;;;;19.38;5.95;;;;;;;10.30;87.37;95598.53;5113383;28;20477;-67
2021/12/10 04:18:15;;;;;;;16.88;5.68;;;;;;;10.27;87.79;95601.34;5113467;28;20076;-66
2021/12/10 04:20:41;;;;;;;21.33;5.72;;;;;;;10.30;87.68;95588.09;5113087;28;20059;-63
2021/12/10 04:23:10;;;;;;;17.90;5.95;;;;;;;10.27;87.53;95595.25;5114921;28;20039;-63
2021/12/10 04:25:37;;;;;;;12.15;4.85;;;;;;;10.25;88.06;95613.63;5117351;28;20024;-65
2021/12/10 04:28:07;;;;;;;12.48;5.07;;;;;;;10.29;88.27;95601.28;5117370;28;20031;-65
2021/12/10 04:30:37;;;;;;;11.80;3.53;;;;;;;10.20;88.96;95595.56;5117298;28;20027;-64
2021/12/10 04:33:04;;;;;;;11.63;5.07;;;;;;;10.22;88.92;95604.19;5117239;28;20112;-66
2021/12/10 04:35:30;;;;;;;12.65;5.03;;;;;;;10.28;88.93;95623.94;5117177;27;20022;-62
2021/12/10 04:37:56;;;;;;;14.23;5.25;;;;;;;10.28;88.62;95613.47;5117120;27;20019;-67
2021/12/10 04:40:22;;;;;;;10.82;3.65;;;;;;;10.33;88.71;95594.94;5117125;28;20032;-62
2021/12/10 04:42:49;;;;;;;7.75;4.07;;;;;;;10.30;88.72;95595.94;5117056;28;20034;-68
2021/12/10 04:45:16;;;;;;;6.10;3.50;;;;;;;10.40;88.45;95598.06;5117299;28;20027;-64
2021/12/10 04:47:42;;;;;;;8.77;3.80;;;;;;;10.34;89.02;95597.47;5116931;28;20032;-68
2021/12/10 04:50:10;;;;;;;17.20;4.95;;;;;;;10.35;89.23;95595.69;5116935;28;20024;-60
2021/12/10 04:52:36;;;;;;;11.48;5.82;;;;;;;10.34;89.67;95597.47;5117023;27;20026;-63
2021/12/10 04:55:05;;;;;;;15.43;6.88;;;;;;;10.40;89.47;95600.69;5116897;28;20023;-63
2021/12/10 04:57:31;;;;;;;9.30;5.70;;;;;;;10.45;89.30;95599.56;5116777;28;20070;-64
2021/12/10 04:59:57;;;;;;;13.98;5.30;;;;;;;10.39;89.53;95585.94;5116775;28;20052;-68
2021/12/10 05:02:24;;;;;;;13.00;4.25;;;;;;;10.40;89.14;95605.91;5116764;28;20020;-62
2021/12/10 05:04:49;;;;;;;9.40;4.07;;;;;;;10.44;89.33;95603.06;5116813;28;20031;-65
2021/12/10 05:07:17;;;;;;;14.05;4.85;;;;;;;10.48;88.90;95614.25;5115348;28;20030;-66
2021/12/10 05:09:43;;;;;;;18.27;6.28;;;;;;;10.49;88.47;95602.84;5116693;28;20016;-62
2021/12/10 05:12:09;;;;;;;18.05;5.82;;;;;;;10.53;88.58;95601.75;5116464;28;20023;-64
2021/12/10 05:14:35;;;;;;;12.63;6.07;;;;;;;10.48;89.13;95599.38;5116578;28;20024;-65
2021/12/10 05:17:06;;;;;;;18.20;7.40;;;;;;;10.44;88.85;95605.69;5116698;28;20030;-63
2021/12/10 05:19:33;;;;;;;17.20;6.60;;;;;;;10.44;88.93;95595.22;5116162;27;20139;-66
2021/12/10 05:22:01;;;;;;;25.13;7.93;;;;;;;10.46;88.94;95603.88;5116429;28;20465;-65
2021/12/10 05:24:28;;;;;;;20.92;6.57;;;;;;;10.45;88.33;95610.00;5116360;28;20019;-62
2021/12/10 05:26:56;;;;;;;22.08;7.45;;;;;;;10.49;88.42;95615.94;5116420;28;20111;-64
2021/12/10 05:29:23;;;;;;;21.45;5.57;;;;;;;10.53;87.25;95607.00;5116324;27;20042;-58
2021/12/10 05:31:50;;;;;;;18.40;4.55;;;;;;;10.55;87.06;95615.63;5114857;28;20015;-64
2021/12/10 05:34:17;;;;;;;18.52;4.80;;;;;;;10.63;86.73;95609.13;5114713;28;20036;-67
2021/12/10 05:36:44;;;;;;;26.08;5.07;;;;;;;10.69;86.81;95596.56;5116234;28;20086;-60
2021/12/10 05:39:11;;;;;;;20.35;5.05;;;;;;;10.72;85.64;95616.50;5116028;28;20118;-67
2021/12/10 05:41:37;;;;;;;19.83;4.93;;;;;;;10.77;85.68;95605.78;5116059;28;20116;-60
2021/12/10 05:44:04;;;;;;;25.45;4.80;;;;;;;10.81;85.54;95602.91;5115887;28;20024;-65
2021/12/10 05:46:31;;;;;;;24.60;5.05;;;;;;;10.79;85.42;95602.16;5115807;28;20385;-63
2021/12/10 05:48:57;;;;;;;22.20;5.50;;;;;;;10.81;84.81;95602.91;5116036;28;20476;-62
2021/12/10 05:51:23;;;;;;;21.10;4.63;;;;;;;10.79;85.72;95601.31;5115829;28;20106;-66
2021/12/10 05:53:49;;;;;;;20.42;4.72;;;;;;;10.76;85.20;95604.06;5115614;28;20105;-64
2021/12/10 05:56:15;;;;;;;23.70;4.95;;;;;;;10.84;84.39;95599.28;5115707;28;20016;-66
2021/12/10 05:58:40;;;;;;;24.20;4.88;;;;;;;10.83;84.39;95605.44;5115610;28;20035;-61
2021/12/10 06:01:10;;;;;;;25.75;4.13;;;;;;;10.89;84.50;95604.28;5115560;28;20062;-65
2021/12/10 06:03:38;;;;;;;21.92;4.40;;;;;;;10.86;83.56;95592.19;5115504;28;20023;-68
2021/12/10 06:06:05;;;;;;;20.40;4.00;;;;;;;10.91;83.02;95598.03;5114323;28;20024;-66
2021/12/10 06:08:32;;;;;;;23.25;4.60;;;;;;;10.92;83.11;95599.72;5114089;28;20031;-60
2021/12/10 06:11:00;;;;;;;23.48;3.92;;;;;;;10.89;83.24;95605.09;5115458;28;20457;-62
2021/12/10 06:13:26;;;;;;;20.98;3.90;;;;;;;10.90;82.83;95598.13;5115394;28;20026;-65
2021/12/10 06:15:52;;;;;;;16.15;3.95;;;;;;;10.87;82.94;95594.72;5115327;28;20016;-60
2021/12/10 06:18:18;;;;;;;28.00;4.18;;;;;;;10.90;81.64;95590.25;5115283;28;20092;-64
2021/12/10 06:20:49;;;;;;;13.15;3.55;;;;;;;10.93;82.34;95600.56;5115028;28;20443;-66
2021/12/10 06:23:16;;;;;;;22.20;4.00;;;;;;;10.89;82.10;95606.91;5115066;28;20027;-66
2021/12/10 06:25:42;;;;;;;17.70;4.28;;;;;;;10.96;81.73;95596.00;5115253;28;20063;-66
2021/12/10 06:28:09;;;;;;;20.00;4.32;;;;;;;10.97;81.94;95589.84;5115118;28;20039;-64
2021/12/10 06:30:39;;;;;;;24.65;5.03;;;;;;;10.97;81.21;95592.47;5115052;28;20024;-65
2021/12/10 06:33:12;;;;;;;17.17;3.55;;;;;;;11.03;81.45;95591.28;5114944;28;20477;-59
2021/12/10 06:35:41;;;;;;;27.88;4.25;;;;;;;11.03;80.68;95579.97;5114938;28;20054;-64
2021/12/10 06:38:08;;;;;;;20.83;3.47;;;;;;;10.99;80.66;95592.38;5114900;28;20057;-62
2021/12/10 06:40:36;;;;;;;26.75;4.30;;;;;;;11.04;81.14;95573.78;5114778;28;20024;-65
2021/12/10 06:43:03;;;;;;;16.98;3.08;;;;;;;10.99;81.35;95585.34;5114737;28;20024;-60
2021/12/10 06:45:30;;;;;;;28.85;4.40;;;;;;;10.95;81.07;95585.59;5114543;27;20012;-63
2021/12/10 06:48:01;;;;;;;25.55;4.43;;;;;;;11.00;81.26;95575.75;5114686;28;20043;-65
2021/12/10 06:50:31;;;;;;;29.45;4.30;;;;;;;10.99;79.93;95595.00;5114651;28;20042;-65
2021/12/10 06:52:57;;;;;;;33.08;4.55;;;;;;;11.00;80.50;95570.50;5114867;28;20035;-65
2021/12/10 06:55:24;;;;;;;18.27;3.42;;;;;;;10.98;80.23;95577.59;5114499;28;20355;-60
2021/12/10 06:57:52;;;;;;;20.63;3.17;;;;;;;10.98;80.12;95575.84;5114593;28;20019;-61
2021/12/10 07:00:31;;;;;;;20.77;3.95;;;;;;;10.92;81.30;95581.41;5114348;28;20055;-61
2021/12/10 07:02:57;;;;;;;26.38;4.38;;;;;;;10.96;80.59;95564.59;5114267;28;20028;-62
2021/12/10 07:05:23;;;;;;;19.05;3.35;;;;;;;10.97;81.56;95568.91;5114374;28;20058;-63
2021/12/10 07:07:49;;;;;;;15.15;2.70;;;;;;;10.92;81.17;95564.84;5114294;28;20035;-67
2021/12/10 07:10:16;;;;;;;17.40;3.33;;;;;;;10.93;81.41;95574.41;5114226;28;20102;-63
2021/12/10 07:12:43;;;;;;;21.40;2.90;;;;;;;10.92;81.46;95576.16;5114148;28;20023;-64
2021/12/10 07:15:11;;;;;;;30.48;4.30;;;;;;;10.91;82.17;95582.34;5114150;28;20032;-64
2021/12/10 07:17:44;;;;;;;22.40;4.97;;;;;;;10.83;83.56;95584.50;5114116;28;20105;-63
2021/12/10 07:20:11;;;;;;;23.10;2.95;;;;;;;10.77;83.18;95583.06;5113809;28;20119;-65
2021/12/10 07:22:38;;;;;;;32.75;4.25;;;;;;;10.76;84.12;95593.63;5113822;28;20035;-64
2021/12/10 07:25:06;;;;;;;20.48;3.70;;;;;;;10.66;84.23;95601.13;5114141;28;20023;-65
2021/12/10 07:27:33;;;;;;;20.40;3.25;;;;;;;10.55;85.09;95599.94;5114052;28;20097;-62
2021/12/10 07:29:59;;;;;;;26.30;4.10;;;;;;;10.51;85.81;95603.63;5113971;28;20024;-61
2021/12/10 07:32:24;;;;;;;21.73;3.17;;;;;;;10.47;86.38;95600.31;5114016;28;20106;-64
2021/12/10 07:34:51;;;;;;;20.65;3.97;;;;;;;10.54;86.29;95592.16;5113873;28;20076;-67
2021/12/10 07:37:17;;;;;;;29.45;3.97;;;;;;;10.52;86.28;95605.31;5113891;28;20397;-67
2021/12/10 07:39:43;;;;;;;17.33;3.20;;;;;;;10.53;86.42;95622.69;5113715;28;20024;-66
2021/12/10 07:42:09;;;;;;;20.63;3.45;;;;;;;10.46;86.84;95618.69;5113567;27;20023;-65
2021/12/10 07:44:37;;;;;;;29.98;3.95;;;;;;;10.48;87.04;95625.53;5113699;28;20027;-63
2021/12/10 07:47:08;;;;;;;23.58;3.83;;;;;;;10.47;87.51;95628.22;5113687;28;20020;-61
2021/12/10 07:49:34;;;;;;;27.13;4.05;;;;;;;10.45;87.48;95630.91;5113919;28;20023;-65
2021/12/10 07:52:00;;;;;;;22.30;3.58;;;;;;;10.43;87.75;95630.16;5113650;28;20052;-66
2021/12/10 07:54:26;;;;;;;29.52;3.85;;;;;;;10.42;88.20;95651.13;5113484;28;20102;-63
2021/12/10 07:56:53;;;;;;;25.58;4.38;;;;;;;10.39;88.43;95635.59;5112940;28;20111;-64
2021/12/10 07:59:19;;;;;;;28.33;5.10;;;;;;;10.30;88.56;95616.84;5113425;28;20436;-62
2021/12/10 08:01:45;;;;;;;34.42;4.57;;;;;;;10.30;88.22;95616.84;5113565;28;20047;-65
2021/12/10 08:04:11;;;;;;;36.30;4.70;;;;;;;10.27;88.44;95598.72;5113246;28;20020;-66
2021/12/10 08:06:38;;;;;;;25.60;4.60;;;;;;;10.22;88.30;95592.88;5113608;28;20076;-63
2021/12/10 08:09:06;;;;;;;24.90;5.70;;;;;;;10.25;87.93;95597.97;5113664;28;20024;-65
2021/12/10 08:11:32;;;;;;;28.67;5.85;;;;;;;10.24;88.47;95602.31;5113469;28;20027;-62
2021/12/10 08:13:58;;;;;;;27.85;5.30;;;;;;;10.32;87.98;95603.69;5113294;28;20056;-67
2021/12/10 08:16:25;;;;;;;23.30;4.90;;;;;;;10.38;87.06;95592.94;5113379;28;20027;-67
2021/12/10 08:18:53;;;;;;;16.45;4.85;;;;;;;10.41;86.50;95605.00;5113261;28;20027;-67
2021/12/10 08:21:20;;;;;;;15.77;4.70;;;;;;;10.47;86.85;95608.16;5113425;28;20038;-64
2021/12/10 08:23:46;;;;;;;14.15;4.47;;;;;;;10.51;86.57;95603.63;5113238;28;20023;-59
2021/12/10 08:26:13;;;;;;;16.25;4.40;;;;;;;10.63;86.14;95606.50;5113515;28;20089;-65
2021/12/10 08:28:39;;;;;;;15.40;4.95;;;;;;;10.72;85.77;95612.09;5113553;28;20419;-67
2021/12/10 08:31:06;;;;;;;21.77;5.03;;;;;;;10.76;85.54;95617.16;5113462;28;20397;-62
2021/12/10 08:33:32;;;;;;;23.88;4.90;;;;;;;10.77;85.36;95617.06;5113267;28;20393;-63
2021/12/10 08:36:04;;;;;;;20.92;6.82;;;;;;;10.78;85.57;95626.63;5113239;28;20016;-60
2021/12/10 08:38:31;;;;;;;22.33;8.50;;;;;;;10.85;85.35;95630.59;5113152;28;20027;-61
2021/12/10 08:41:02;;;;;;;25.88;11.40;;;;;;;10.87;85.32;95633.16;5113212;28;20027;-61
2021/12/10 08:43:29;;;;;;;27.33;11.13;;;;;;;10.88;84.84;95629.59;5113236;28;20473;-62
2021/12/10 08:45:55;;;;;;;16.90;5.07;;;;;;;10.88;83.83;95619.13;5113099;28;20024;-62
2021/12/10 08:48:24;;;;;;;22.05;5.40;;;;;;;10.79;83.94;95619.59;5112993;28;20027;-60
2021/12/10 08:50:50;;;;;;;16.85;4.20;;;;;;;10.80;83.57;95601.22;5112997;28;20462;-61
2021/12/10 08:53:17;;;;;;;20.30;5.75;;;;;;;10.79;83.26;95604.78;5112951;28;20032;-63
2021/12/10 08:55:46;;;;;;;28.55;5.75;;;;;;;10.70;83.52;95608.72;5112948;28;20473;-64
2021/12/10 08:58:13;;;;;;;19.27;4.40;;;;;;;10.68;84.55;95599.25;5113127;28;20032;-67
2021/12/10 09:00:41;;;;;;;26.88;5.13;;;;;;;10.60;84.60;95604.91;5113173;28;20030;-62
2021/12/10 09:03:07;;;;;;;18.52;4.95;;;;;;;10.52;84.41;95601.84;5111618;28;20389;-61
2021/12/10 09:05:34;;;;;;;19.13;4.47;;;;;;;10.48;84.53;95599.38;5112887;28;20020;-67
2021/12/10 09:07:59;;;;;;;21.73;4.75;;;;;;;10.51;83.91;95597.56;5112893;28;20031;-66
2021/12/10 09:10:30;;;;;;;13.45;4.38;;;;;;;10.57;84.69;95590.22;5116508;28;20036;-66
2021/12/10 09:12:56;;;;;;;25.83;5.45;;;;;;;10.60;83.84;95582.22;5116795;28;20020;-64
2021/12/10 09:15:25;;;;;;;23.17;5.03;;;;;;;10.74;83.93;95555.31;5116413;28;20051;-59
2021/12/10 09:17:52;;;;;;;17.10;4.63;;;;;;;10.88;83.85;95548.50;5116351;28;20390;-65
2021/12/10 09:20:27;;;;;;;14.50;4.40;;;;;;;10.91;83.73;95558.78;5116044;28;20046;-63
2021/12/10 09:22:53;;;;;;;15.30;4.75;;;;;;;10.98;83.88;95570.59;5116502;27;20023;-65
2021/12/10 09:25:19;;;;;;;14.88;4.93;;;;;;;10.98;83.44;95560.13;5116544;28;20410;-66
2021/12/10 09:27:46;;;;;;;17.63;4.65;;;;;;;11.01;83.04;95581.84;5116439;28;20027;-64
2021/12/10 09:30:14;;;;;;;13.02;4.32;;;;;;;10.95;81.73;95575.13;5116188;28;20157;-61
2021/12/10 09:32:40;;;;;;;13.93;4.63;;;;;;;10.97;82.05;95576.78;5116153;28;20020;-66
2021/12/10 09:35:08;;;;;;;14.07;4.35;;;;;;;11.01;82.08;95576.59;5116160;28;20027;-60
2021/12/10 09:37:40;;;;;;;11.98;4.55;;;;;;;10.86;82.78;95560.78;5115951;28;20023;-68
2021/12/10 09:40:12;;;;;;;15.38;4.38;;;;;;;10.86;83.00;95571.25;5115922;28;20481;-62
2021/12/10 09:42:39;;;;;;;12.90;4.93;;;;;;;10.94;82.37;95563.00;5115835;28;20032;-66
2021/12/10 09:45:07;;;;;;;10.55;3.90;;;;;;;10.91;82.13;95552.69;5114707;28;20175;-68
2021/12/10 09:47:33;;;;;;;7.88;3.97;;;;;;;10.80;82.02;95564.59;5115845;28;20055;-63
2021/12/10 09:50:00;;;;;;;13.65;5.38;;;;;;;10.69;83.51;95575.63;5115825;28;20047;-64
2021/12/10 09:52:27;;;;;;;10.20;4.10;;;;;;;10.74;83.54;95572.78;5115714;28;20046;-66
2021/12/10 09:54:53;;;;;;;9.40;3.70;;;;;;;10.73;82.94;95568.47;5115806;28;20039;-66
2021/12/10 09:57:24;;;;;;;12.77;5.30;;;;;;;10.66;83.75;95557.53;5115719;28;20024;-68
2021/12/10 09:59:52;;;;;;;10.98;4.40;;;;;;;10.66;84.13;95548.81;5115891;27;20027;-63
2021/12/10 10:02:21;;;;;;;11.23;4.20;;;;;;;10.71;84.65;95538.94;5115702;28;20077;-63
2021/12/10 10:04:49;;;;;;;13.73;4.53;;;;;;;10.80;85.24;95532.34;5115628;27;20350;-62
2021/12/10 10:07:27;;;;;;;13.93;4.30;;;;;;;10.87;85.17;95534.56;5115400;28;20057;-65
2021/12/10 10:09:58;;;;;;;13.55;3.53;;;;;;;10.81;84.37;95557.59;5115586;28;20019;-65
2021/12/10 10:12:31;;;;;;;7.30;2.90;;;;;;;10.74;84.49;95562.31;5115499;28;20024;-63
2021/12/10 10:15:02;;;;;;;12.38;3.15;;;;;;;10.65;84.41;95555.81;5115375;28;20092;-65
2021/12/10 10:17:28;;;;;;;7.78;2.55;;;;;;;10.69;84.55;95548.66;5115248;28;20118;-65
2021/12/10 10:19:54;;;;;;;5.38;2.08;;;;;;;10.68;84.03;95546.94;5114510;28;20126;-64
2021/12/10 10:22:27;;;;;;;8.68;2.35;;;;;;;10.67;85.30;95564.44;5113821;28;20016;-65
2021/12/10 10:24:54;;;;;;;3.90;2.35;;;;;;;10.68;84.63;95567.88;5115369;28;20023;-65
2021/12/10 10:27:27;;;;;;;4.20;2.70;;;;;;;10.57;85.47;95564.06;5115194;28;20432;-65
2021/12/10 10:30:02;;;;;;;10.10;3.13;;;;;;;10.46;85.68;95566.41;5115024;28;20039;-63
2021/12/10 10:32:32;;;;;;;11.77;3.72;;;;;;;10.47;85.59;95544.56;5115068;27;20046;-63
2021/12/10 10:35:01;;;;;;;5.30;2.40;;;;;;;10.39;85.74;95521.44;5115051;28;20114;-64
2021/12/10 10:37:29;;;;;;;10.00;3.10;;;;;;;10.41;85.47;95508.28;5115117;27;20152;-66
2021/12/10 10:39:55;;;;;;;10.93;3.63;;;;;;;10.40;85.46;95506.56;5114917;28;20414;-66
2021/12/10 10:42:25;;;;;;;9.88;3.28;;;;;;;10.42;85.63;95496.91;5114675;28;20066;-65
2021/12/10 10:44:52;;;;;;;11.70;2.72;;;;;;;10.52;84.93;95486.78;5114800;28;20028;-61
2021/12/10 10:47:23;;;;;;;8.13;1.90;;;;;;;10.46;85.74;95487.97;5114729;28;20086;-65
2021/12/10 10:50:11;;;;;;;6.88;2.50;;;;;;;10.52;85.84;95487.66;5114754;28;20034;-67
2021/12/10 10:52:40;;;;;;;7.25;2.75;;;;;;;10.61;86.12;95489.78;5114634;28;20477;-57
2021/12/10 10:55:11;;;;;;;14.73;3.78;;;;;;;10.71;85.50;95482.25;5114557;28;20419;-63
2021/12/10 10:57:49;;;;;;;9.77;2.95;;;;;;;10.80;84.49;95482.66;5114547;28;20032;-65
2021/12/10 11:00:28;;;;;;;6.63;2.13;;;;;;;10.89;84.26;95483.94;5114622;28;20027;-58
2021/12/10 11:03:00;;;;;;;8.55;1.92;;;;;;;10.89;84.34;95497.84;5114426;28;20354;-61
2021/12/10 11:05:27;;;;;;;8.23;2.03;;;;;;;10.83;84.28;95509.50;5114365;28;20038;-64
2021/12/10 11:07:55;;;;;;;13.32;1.92;;;;;;;10.81;83.87;95513.97;5114466;28;20372;-65
2021/12/10 11:10:43;;;;;;;13.07;2.65;;;;;;;10.68;84.50;95526.03;5113085;28;20027;-67
2021/12/10 11:13:21;;;;;;;23.77;13.25;;;;;;;10.57;84.64;95530.06;5114332;28;20111;-63
2021/12/10 11:15:58;;;;;;;13.80;2.92;;;;;;;10.58;84.51;95518.69;5114170;28;20031;-63
2021/12/10 11:18:24;;;;;;;10.68;2.20;;;;;;;10.45;84.68;95509.81;5114117;27;20031;-61
2021/12/10 11:20:50;;;;;;;6.50;1.52;;;;;;;10.52;84.81;95513.81;5113859;28;20068;-65
2021/12/10 11:23:19;;;;;;;7.30;2.20;;;;;;;10.52;84.95;95500.72;5114048;28;20066;-67
2021/12/10 11:25:50;;;;;;;13.02;1.92;;;;;;;10.51;85.40;95495.56;5114047;28;20028;-61
2021/12/10 11:28:22;;;;;;;7.60;1.95;;;;;;;10.57;84.76;95472.53;5113948;28;20023;-65
2021/12/10 11:31:05;;;;;;;8.05;1.83;;;;;;;10.60;84.14;95472.38;5113947;28;20024;-67
2021/12/10 11:33:35;;;;;;;6.18;1.80;;;;;;;10.66;84.81;95472.97;5114055;28;20028;-66
2021/12/10 11:36:15;;;;;;;4.80;1.88;;;;;;;10.70;84.17;95470.09;5113868;27;20021;-63
2021/12/10 11:38:45;;;;;;;5.90;1.67;;;;;;;10.82;83.96;95467.72;5114226;28;20027;-62
2021/12/10 11:41:22;;;;;;;9.50;2.25;;;;;;;10.86;83.43;95477.94;5114088;28;20111;-62